createdAt,value
2022-09-10T00:01:23.609Z,2.90
2022-09-10T00:03:51.764Z,2.88
2022-09-10T00:06:20.356Z,2.92
2022-09-10T00:08:49.247Z,2.58
2022-09-10T00:11:17.451Z,3.20
2022-09-10T00:13:46.914Z,2.42
2022-09-10T00:16:16.335Z,2.85
2022-09-10T00:18:44.787Z,3.03
2022-09-10T00:21:16.338Z,2.78
2022-09-10T00:23:45.847Z,3.53
2022-09-10T00:26:17.140Z,2.33
2022-09-10T00:28:46.938Z,2.50
2022-09-10T00:31:16.833Z,2.92
2022-09-10T00:33:44.921Z,3.35
2022-09-10T00:36:17.360Z,3.33
2022-09-10T00:38:45.570Z,3.10
2022-09-10T00:41:14.288Z,2.95
2022-09-10T00:43:57.927Z,2.95
2022-09-10T00:46:35.679Z,3.35
2022-09-10T00:49:06.953Z,3.38
2022-09-10T00:51:37.560Z,3.33
2022-09-10T00:54:07.407Z,2.78
2022-09-10T00:56:35.709Z,2.70
2022-09-10T00:59:06.159Z,2.53
2022-09-10T01:01:36.166Z,3.00
2022-09-10T01:04:05.914Z,2.63
2022-09-10T01:06:34.576Z,2.72
2022-09-10T01:09:03.109Z,3.03
2022-09-10T01:11:53.260Z,3.15
2022-09-10T01:14:38.596Z,3.45
2022-09-10T01:17:15.458Z,3.50
2022-09-10T01:20:21.898Z,3.08
2022-09-10T01:23:17.790Z,2.95
2022-09-10T01:25:58.714Z,3.85
2022-09-10T01:28:36.165Z,3.10
2022-09-10T01:31:12.049Z,2.88
2022-09-10T01:33:47.252Z,3.00
2022-09-10T01:36:19.026Z,3.28
2022-09-10T01:38:49.997Z,2.97
2022-09-10T01:41:18.122Z,2.92
2022-09-10T01:43:47.770Z,3.22
2022-09-10T01:46:25.923Z,2.97
2022-09-10T01:49:13.846Z,3.35
2022-09-10T01:51:59.991Z,3.65
2022-09-10T01:54:41.946Z,3.60
2022-09-10T01:57:24.693Z,3.50
2022-09-10T02:00:03.199Z,3.03
2022-09-10T02:02:37.779Z,2.90
2022-09-10T02:05:08.392Z,3.40
2022-09-10T02:07:38.116Z,3.80
2022-09-10T02:10:08.763Z,3.80
2022-09-10T02:12:37.138Z,3.42
2022-09-10T02:15:09.075Z,4.13
2022-09-10T02:17:39.732Z,4.32
2022-09-10T02:20:13.683Z,4.53
2022-09-10T02:22:47.025Z,4.38
2022-09-10T02:25:15.365Z,3.80
2022-09-10T02:27:44.396Z,3.50
2022-09-10T02:30:14.435Z,4.05
2022-09-10T02:32:42.895Z,4.65
2022-09-10T02:35:11.066Z,3.97
2022-09-10T02:37:39.115Z,4.35
2022-09-10T02:40:08.265Z,4.88
2022-09-10T02:42:36.447Z,4.90
2022-09-10T02:45:04.958Z,4.90
2022-09-10T02:47:34.354Z,4.70
2022-09-10T02:50:03.025Z,4.63
2022-09-10T02:52:31.026Z,4.93
2022-09-10T02:55:00.042Z,5.18
2022-09-10T02:57:28.641Z,5.38
2022-09-10T02:59:57.061Z,6.20
2022-09-10T03:02:25.668Z,5.90
2022-09-10T03:04:55.086Z,6.32
2022-09-10T03:07:23.394Z,6.80
2022-09-10T03:09:51.439Z,7.22
2022-09-10T03:12:20.277Z,7.13
2022-09-10T03:14:48.665Z,6.85
2022-09-10T03:17:17.055Z,8.38
2022-09-10T03:19:45.307Z,7.88
2022-09-10T03:22:14.629Z,8.00
2022-09-10T03:24:43.180Z,8.60
2022-09-10T03:27:11.246Z,8.82
2022-09-10T03:29:39.374Z,8.40
2022-09-10T03:32:07.712Z,9.77
2022-09-10T03:34:36.170Z,9.52
2022-09-10T03:37:04.126Z,9.40
2022-09-10T03:39:33.604Z,8.80
2022-09-10T03:42:05.214Z,10.00
2022-09-10T03:44:34.038Z,9.13
2022-09-10T03:47:02.382Z,9.68
2022-09-10T03:49:30.662Z,9.90
2022-09-10T03:51:58.729Z,10.05
2022-09-10T03:54:26.937Z,10.38
2022-09-10T03:56:56.250Z,9.57
2022-09-10T03:59:24.258Z,10.35
2022-09-10T04:01:52.322Z,10.93
2022-09-10T04:04:20.537Z,11.32
2022-09-10T04:06:48.541Z,10.90
2022-09-10T04:09:16.734Z,11.25
2022-09-10T04:11:44.706Z,11.07
2022-09-10T04:14:15.984Z,11.23
2022-09-10T04:16:44.052Z,10.98
2022-09-10T04:19:12.798Z,12.63
2022-09-10T04:21:41.027Z,12.77
2022-09-10T04:24:11.966Z,11.65
2022-09-10T04:26:40.270Z,12.45
2022-09-10T04:29:08.308Z,12.65
2022-09-10T04:31:37.673Z,12.65
2022-09-10T04:34:05.939Z,12.30
2022-09-10T04:36:33.972Z,13.70
2022-09-10T04:39:02.006Z,12.63
2022-09-10T04:41:30.107Z,12.50
2022-09-10T04:43:59.139Z,11.85
2022-09-10T04:46:27.170Z,13.32
2022-09-10T04:48:56.545Z,13.75
2022-09-10T04:51:24.731Z,14.10
2022-09-10T04:53:52.808Z,13.98
2022-09-10T04:56:21.128Z,14.23
2022-09-10T04:58:49.420Z,14.23
2022-09-10T05:01:17.701Z,14.07
2022-09-10T05:03:45.785Z,14.57
2022-09-10T05:06:15.161Z,14.60
2022-09-10T05:08:43.157Z,14.73
2022-09-10T05:11:11.494Z,15.15
2022-09-10T05:13:39.552Z,14.27
2022-09-10T05:16:08.229Z,14.35
2022-09-10T05:18:36.438Z,14.43
2022-09-10T05:21:05.253Z,13.95
2022-09-10T05:23:34.609Z,14.65
2022-09-10T05:26:02.598Z,14.07
2022-09-10T05:28:30.827Z,15.20
2022-09-10T05:30:58.928Z,14.15
2022-09-10T05:33:26.976Z,14.23
2022-09-10T05:35:54.971Z,14.57
2022-09-10T05:38:23.998Z,17.08
2022-09-10T05:40:53.975Z,14.35
2022-09-10T05:43:22.065Z,14.65
2022-09-10T05:45:51.911Z,13.70
2022-09-10T05:48:20.433Z,14.88
2022-09-10T05:50:48.452Z,14.38
2022-09-10T05:53:17.006Z,14.70
2022-09-10T05:55:45.986Z,13.68
2022-09-10T05:58:16.183Z,12.95
2022-09-10T06:00:44.378Z,12.82
2022-09-10T06:03:12.915Z,12.52
2022-09-10T06:05:40.973Z,12.80
2022-09-10T06:08:09.291Z,13.68
2022-09-10T06:10:37.358Z,12.98
2022-09-10T06:13:06.156Z,13.48
2022-09-10T06:15:37.899Z,12.10
2022-09-10T06:18:06.259Z,12.35
2022-09-10T06:20:34.425Z,12.73
2022-09-10T06:23:02.428Z,13.85
2022-09-10T06:25:31.123Z,12.98
2022-09-10T06:27:59.321Z,13.20
2022-09-10T06:30:27.617Z,13.15
2022-09-10T06:32:57.522Z,13.73
2022-09-10T06:35:27.111Z,12.57
2022-09-10T06:37:55.890Z,12.38
2022-09-10T06:40:26.547Z,13.23
2022-09-10T06:42:55.177Z,12.30
2022-09-10T06:45:24.102Z,12.90
2022-09-10T06:48:37.013Z,12.18
2022-09-10T06:50:51.554Z,12.05
2022-09-10T06:53:21.835Z,11.32
2022-09-10T06:55:50.644Z,12.18
2022-09-10T06:58:19.864Z,11.70
2022-09-10T07:00:48.053Z,11.57
2022-09-10T07:03:16.980Z,12.00
2022-09-10T07:05:47.277Z,11.52
2022-09-10T07:08:16.765Z,11.85
2022-09-10T07:10:46.443Z,12.18
2022-09-10T07:13:14.903Z,10.85
2022-09-10T07:15:47.487Z,11.63
2022-09-10T07:18:15.770Z,10.82
2022-09-10T07:20:44.396Z,11.75
2022-09-10T07:23:14.516Z,11.02
2022-09-10T07:25:43.291Z,11.57
2022-09-10T07:28:15.201Z,12.35
2022-09-10T07:30:44.418Z,11.50
2022-09-10T07:33:12.696Z,10.95
2022-09-10T07:35:41.044Z,12.05
2022-09-10T07:38:16.451Z,11.85
2022-09-10T07:40:44.787Z,11.20
2022-09-10T07:43:12.774Z,11.75
2022-09-10T07:45:42.223Z,11.65
2022-09-10T07:48:11.878Z,11.55
2022-09-10T07:50:39.859Z,12.15
2022-09-10T07:53:08.042Z,12.23
2022-09-10T07:55:37.331Z,13.00
2022-09-10T07:58:05.380Z,12.68
2022-09-10T08:00:33.600Z,12.52
2022-09-10T08:03:03.127Z,13.68
2022-09-10T08:05:31.151Z,12.75
2022-09-10T08:07:59.556Z,12.85
2022-09-10T08:10:27.545Z,12.52
2022-09-10T08:12:57.355Z,12.50
2022-09-10T08:15:25.461Z,12.48
2022-09-10T08:17:53.683Z,11.63
2022-09-10T08:20:22.430Z,11.35
2022-09-10T08:22:50.526Z,12.32
2022-09-10T08:25:20.089Z,11.07
2022-09-10T08:27:48.241Z,11.75
2022-09-10T08:30:17.788Z,11.65
2022-09-10T08:32:45.972Z,11.02
2022-09-10T08:35:14.491Z,11.27
2022-09-10T08:37:42.657Z,8.98
2022-09-10T08:40:13.370Z,10.20
2022-09-10T08:42:46.949Z,9.35
2022-09-10T08:45:21.000Z,9.13
2022-09-10T08:48:00.202Z,8.30
2022-09-10T08:50:37.161Z,8.80
2022-09-10T08:53:19.758Z,8.43
2022-09-10T08:55:49.000Z,8.63
2022-09-10T08:58:22.090Z,7.97
2022-09-10T09:00:55.058Z,8.20
2022-09-10T09:03:29.026Z,7.00
2022-09-10T09:05:59.971Z,7.32
2022-09-10T09:08:32.407Z,6.65
2022-09-10T09:11:10.880Z,6.75
2022-09-10T09:13:58.883Z,5.78
2022-09-10T09:16:39.162Z,5.50
2022-09-10T09:19:20.315Z,5.60
2022-09-10T09:21:53.116Z,4.97
2022-09-10T09:24:25.252Z,5.05
2022-09-10T09:26:57.690Z,5.32
2022-09-10T09:29:31.695Z,5.68
2022-09-10T09:32:04.145Z,5.30
2022-09-10T09:34:37.010Z,6.00
2022-09-10T09:37:11.589Z,5.35
2022-09-10T09:39:44.172Z,5.53
2022-09-10T09:42:20.611Z,5.53
2022-09-10T09:44:57.000Z,5.10
2022-09-10T09:47:26.847Z,5.60
2022-09-10T09:49:56.211Z,5.05
2022-09-10T09:52:25.804Z,5.82
2022-09-10T09:55:13.904Z,5.43
2022-09-10T09:57:43.218Z,5.78
2022-09-10T10:00:36.344Z,4.25
2022-09-10T10:03:14.069Z,3.90
2022-09-10T10:05:43.928Z,4.93
2022-09-10T10:08:31.158Z,4.30
2022-09-10T10:10:59.737Z,3.50
2022-09-10T10:13:37.554Z,3.63
2022-09-10T10:16:17.361Z,3.60
2022-09-10T10:18:46.946Z,4.22
2022-09-10T10:21:21.390Z,4.47
2022-09-10T10:23:50.241Z,4.75
2022-09-10T10:26:27.807Z,4.55
2022-09-10T10:29:00.153Z,4.63
2022-09-10T10:31:41.356Z,4.40
2022-09-10T10:34:36.684Z,4.70
2022-09-10T10:37:10.471Z,4.60
2022-09-10T10:40:01.383Z,5.85
2022-09-10T10:42:33.368Z,5.03
2022-09-10T10:45:28.857Z,4.97
2022-09-10T10:48:04.779Z,5.18
2022-09-10T10:50:44.789Z,3.67
2022-09-10T10:53:22.599Z,3.83
2022-09-10T10:55:57.079Z,3.85
2022-09-10T10:58:54.288Z,3.30
2022-09-10T11:01:25.719Z,3.42
2022-09-10T11:04:01.659Z,3.63
2022-09-10T11:06:38.369Z,4.93
2022-09-10T11:09:11.498Z,4.25
2022-09-10T11:11:52.144Z,4.35
2022-09-10T11:14:24.541Z,3.72
2022-09-10T11:16:59.259Z,3.03
2022-09-10T11:19:35.885Z,3.88
2022-09-10T11:22:12.514Z,3.25
2022-09-10T11:24:45.684Z,3.40
2022-09-10T11:27:17.690Z,3.08
2022-09-10T11:29:53.141Z,2.97
2022-09-10T11:32:30.150Z,3.50
2022-09-10T11:35:05.086Z,3.38
2022-09-10T11:37:50.981Z,3.17
2022-09-10T11:40:25.586Z,3.65
2022-09-10T11:42:59.503Z,4.00
2022-09-10T11:45:36.319Z,3.63
2022-09-10T11:48:17.359Z,3.20
2022-09-10T11:50:51.328Z,3.03
2022-09-10T11:53:23.385Z,2.65
2022-09-10T11:56:16.349Z,3.10
2022-09-10T11:58:55.266Z,2.60
2022-09-10T12:01:37.323Z,2.03
2022-09-10T12:04:31.599Z,1.98
2022-09-10T12:07:10.134Z,1.90
2022-09-10T12:09:48.170Z,2.13
2022-09-10T12:12:22.449Z,1.83
2022-09-10T12:14:50.684Z,1.90
2022-09-10T12:17:24.610Z,1.92
2022-09-10T12:19:55.583Z,1.95
2022-09-10T12:22:29.342Z,2.22
2022-09-10T12:25:02.976Z,2.17
2022-09-10T12:27:46.564Z,1.88
2022-09-10T12:30:54.264Z,2.20
2022-09-10T12:33:59.350Z,1.60
2022-09-10T12:37:17.104Z,1.83
2022-09-10T12:39:45.397Z,2.28
2022-09-10T12:42:30.089Z,1.70
2022-09-10T12:44:58.364Z,1.60
2022-09-10T12:47:50.539Z,2.00
2022-09-10T12:50:24.410Z,1.98
2022-09-10T12:53:07.036Z,2.03
2022-09-10T12:55:44.495Z,2.15
2022-09-10T12:58:24.205Z,2.13
2022-09-10T13:01:09.553Z,2.47
2022-09-10T13:03:38.196Z,2.30
2022-09-10T13:06:09.690Z,2.50
2022-09-10T13:08:41.494Z,2.20
2022-09-10T13:11:17.657Z,2.28
2022-09-10T13:13:54.575Z,2.35
2022-09-10T13:16:39.272Z,2.28
2022-09-10T13:19:40.614Z,2.40
2022-09-10T13:22:32.267Z,2.55
2022-09-10T13:25:02.890Z,2.60
2022-09-10T13:27:39.753Z,1.92
2022-09-10T13:30:20.573Z,2.30
2022-09-10T13:32:52.951Z,2.58
2022-09-10T13:35:45.446Z,2.60
2022-09-10T13:38:37.562Z,2.40
2022-09-10T13:41:29.405Z,2.00
2022-09-10T13:44:18.975Z,2.20
2022-09-10T13:46:52.069Z,2.15
2022-09-10T13:49:29.141Z,2.22
2022-09-10T13:51:59.762Z,2.65
2022-09-10T13:54:35.529Z,2.78
2022-09-10T13:57:11.634Z,2.67
2022-09-10T13:59:42.193Z,2.65
2022-09-10T14:02:11.573Z,2.88
2022-09-10T14:04:44.902Z,3.05
2022-09-10T14:07:16.210Z,2.90
2022-09-10T14:09:46.933Z,3.38
2022-09-10T14:12:16.383Z,4.00
2022-09-10T14:14:47.033Z,3.10
2022-09-10T14:17:20.617Z,3.92
2022-09-10T14:19:54.549Z,3.35
2022-09-10T14:22:25.417Z,3.20
2022-09-10T14:24:55.147Z,3.35
2022-09-10T14:27:26.473Z,3.42
2022-09-10T14:29:57.590Z,3.47
2022-09-10T14:32:32.844Z,3.10
2022-09-10T14:35:22.896Z,3.40
2022-09-10T14:37:51.676Z,3.80
2022-09-10T14:40:22.303Z,3.53
2022-09-10T14:42:51.452Z,3.28
2022-09-10T14:45:39.064Z,3.30
2022-09-10T14:48:29.955Z,3.50
2022-09-10T14:51:12.297Z,3.30
2022-09-10T14:53:41.960Z,2.90
2022-09-10T14:56:24.215Z,2.95
2022-09-10T14:58:58.686Z,3.25
2022-09-10T15:01:27.252Z,3.00
2022-09-10T15:03:57.170Z,3.13
2022-09-10T15:06:26.925Z,2.67
2022-09-10T15:08:56.748Z,3.50
2022-09-10T15:11:27.831Z,2.70
2022-09-10T15:13:58.773Z,3.10
2022-09-10T15:16:27.533Z,3.60
2022-09-10T15:18:58.182Z,3.75
2022-09-10T15:21:26.642Z,3.50
2022-09-10T15:23:54.763Z,3.50
2022-09-10T15:26:22.800Z,3.58
2022-09-10T15:28:50.791Z,3.70
2022-09-10T15:31:19.278Z,4.07
2022-09-10T15:33:47.336Z,3.85
2022-09-10T15:36:16.722Z,3.50
2022-09-10T15:38:44.826Z,3.83
2022-09-10T15:41:14.993Z,4.35
2022-09-10T15:43:44.697Z,3.63
2022-09-10T15:46:14.229Z,3.70
2022-09-10T15:48:43.248Z,3.72
2022-09-10T15:51:15.067Z,3.60
2022-09-10T15:53:46.088Z,4.18
2022-09-10T15:56:15.353Z,4.07
2022-09-10T15:58:48.806Z,4.25
2022-09-10T16:01:17.556Z,3.63
2022-09-10T16:03:48.099Z,4.10
2022-09-10T16:06:18.480Z,4.25
2022-09-10T16:08:50.708Z,4.30
2022-09-10T16:11:19.346Z,3.58
2022-09-10T16:13:47.756Z,3.42
2022-09-10T16:16:18.982Z,3.92
2022-09-10T16:18:48.115Z,3.78
2022-09-10T16:21:19.113Z,3.80
2022-09-10T16:23:48.182Z,4.28
2022-09-10T16:26:20.172Z,3.58
2022-09-10T16:28:51.372Z,3.88
2022-09-10T16:31:20.919Z,3.47
2022-09-10T16:33:54.087Z,3.78
2022-09-10T16:36:23.521Z,3.65
2022-09-10T16:38:54.451Z,3.42
2022-09-10T16:41:25.493Z,3.78
2022-09-10T16:43:55.172Z,3.95
2022-09-10T16:46:23.487Z,3.65
2022-09-10T16:48:53.528Z,3.92
2022-09-10T16:51:24.386Z,3.50
2022-09-10T16:53:57.770Z,3.40
2022-09-10T16:56:27.676Z,3.17
2022-09-10T16:58:55.959Z,3.40
2022-09-10T17:01:24.125Z,3.70
2022-09-10T17:03:52.604Z,3.65
2022-09-10T17:06:23.170Z,3.58
2022-09-10T17:08:52.027Z,3.78
2022-09-10T17:11:21.245Z,4.75
2022-09-10T17:13:50.931Z,4.18
2022-09-10T17:16:25.315Z,4.95
2022-09-10T17:18:58.039Z,5.28
2022-09-10T17:21:26.721Z,4.55
2022-09-10T17:23:55.619Z,5.15
2022-09-10T17:26:24.343Z,4.78
2022-09-10T17:28:59.042Z,4.43
2022-09-10T17:31:29.049Z,3.60
2022-09-10T17:33:57.886Z,3.17
2022-09-10T17:36:27.209Z,2.90
2022-09-10T17:38:56.234Z,3.55
2022-09-10T17:41:25.196Z,3.10
2022-09-10T17:43:53.550Z,3.38
2022-09-10T17:46:24.108Z,3.25
2022-09-10T17:48:53.700Z,3.80
2022-09-10T17:51:24.000Z,3.85
2022-09-10T17:53:52.962Z,4.30
2022-09-10T17:56:21.364Z,4.30
2022-09-10T17:58:50.765Z,4.15
2022-09-10T18:01:23.682Z,4.38
2022-09-10T18:03:52.359Z,3.80
2022-09-10T18:06:22.162Z,4.10
2022-09-10T18:08:50.366Z,3.70
2022-09-10T18:11:20.950Z,4.57
2022-09-10T18:13:51.478Z,4.60
2022-09-10T18:16:23.793Z,4.38
2022-09-10T18:18:53.879Z,3.75
2022-09-10T18:21:25.155Z,3.67
2022-09-10T18:23:54.430Z,4.25
2022-09-10T18:26:24.825Z,3.97
2022-09-10T18:28:55.500Z,4.25
2022-09-10T18:31:26.570Z,4.50
2022-09-10T18:33:55.868Z,4.30
2022-09-10T18:36:25.811Z,4.07
2022-09-10T18:38:54.220Z,4.68
2022-09-10T18:41:26.000Z,4.18
2022-09-10T18:43:57.290Z,4.20
2022-09-10T18:46:29.020Z,4.40
2022-09-10T18:48:57.762Z,4.72
2022-09-10T18:51:28.563Z,4.25
2022-09-10T18:53:59.907Z,4.60
2022-09-10T18:56:30.290Z,4.18
2022-09-10T18:59:00.846Z,4.88
2022-09-10T19:01:31.943Z,5.10
2022-09-10T19:04:00.085Z,4.80
2022-09-10T19:06:31.040Z,4.80
2022-09-10T19:09:01.348Z,4.75
2022-09-10T19:11:33.084Z,4.78
2022-09-10T19:14:02.763Z,4.68
2022-09-10T19:16:34.113Z,5.15
2022-09-10T19:19:03.481Z,5.30
2022-09-10T19:21:35.369Z,5.28
2022-09-10T19:24:04.132Z,5.85
2022-09-10T19:26:35.025Z,5.88
2022-09-10T19:29:04.225Z,6.25
2022-09-10T19:31:36.115Z,5.45
2022-09-10T19:34:07.799Z,5.25
2022-09-10T19:36:36.716Z,5.38
2022-09-10T19:39:06.901Z,5.40
2022-09-10T19:41:35.766Z,5.85
2022-09-10T19:44:04.714Z,5.53
2022-09-10T19:46:36.542Z,6.22
2022-09-10T19:49:06.368Z,6.43
2022-09-10T19:51:37.093Z,5.43
2022-09-10T19:54:06.630Z,5.88
2022-09-10T19:56:37.457Z,6.60
2022-09-10T19:59:08.795Z,5.55
2022-09-10T20:01:40.453Z,5.97
2022-09-10T20:04:10.774Z,6.20
2022-09-10T20:06:39.691Z,6.45
2022-09-10T20:09:09.884Z,6.55
2022-09-10T20:11:38.613Z,6.75
2022-09-10T20:14:08.837Z,6.53
2022-09-10T20:16:39.385Z,6.35
2022-09-10T20:19:08.629Z,5.82
2022-09-10T20:21:37.359Z,6.32
2022-09-10T20:24:08.002Z,7.10
2022-09-10T20:26:38.042Z,7.40
2022-09-10T20:29:08.501Z,7.93
2022-09-10T20:31:40.910Z,7.65
2022-09-10T20:34:11.913Z,7.50
2022-09-10T20:36:42.164Z,6.43
2022-09-10T20:39:16.499Z,7.60
2022-09-10T20:41:45.049Z,6.53
2022-09-10T20:44:14.855Z,6.95
2022-09-10T20:46:44.825Z,6.20
2022-09-10T20:49:13.719Z,6.35
2022-09-10T20:51:41.887Z,6.68
2022-09-10T20:54:14.071Z,6.22
2022-09-10T20:56:42.321Z,6.32
2022-09-10T20:59:11.990Z,7.03
2022-09-10T21:01:40.285Z,6.75
2022-09-10T21:04:10.245Z,7.13
2022-09-10T21:06:38.611Z,6.30
2022-09-10T21:09:07.546Z,6.35
2022-09-10T21:11:36.290Z,6.22
2022-09-10T21:14:08.027Z,6.22
2022-09-10T21:16:37.544Z,6.25
2022-09-10T21:19:08.863Z,5.55
2022-09-10T21:21:39.733Z,5.68
2022-09-10T21:24:11.448Z,6.03
2022-09-10T21:26:42.910Z,6.40
2022-09-10T21:29:13.992Z,5.03
2022-09-10T21:31:42.495Z,5.60
2022-09-10T21:34:10.846Z,5.63
2022-09-10T21:36:42.008Z,5.97
2022-09-10T21:39:14.532Z,6.90
2022-09-10T21:41:44.495Z,6.80
2022-09-10T21:44:14.611Z,7.55
2022-09-10T21:46:43.204Z,7.35
2022-09-10T21:49:11.559Z,7.82
2022-09-10T21:51:42.189Z,6.97
2022-09-10T21:54:14.407Z,7.05
2022-09-10T21:56:42.486Z,7.63
2022-09-10T21:59:11.978Z,6.68
2022-09-10T22:01:41.965Z,6.47
2022-09-10T22:04:11.236Z,7.70
2022-09-10T22:06:41.135Z,6.72
2022-09-10T22:09:11.932Z,6.68
2022-09-10T22:11:42.374Z,11.40
2022-09-10T22:14:16.144Z,6.00
2022-09-10T22:16:45.413Z,5.53
2022-09-10T22:19:19.289Z,6.43
2022-09-10T22:21:49.112Z,6.55
2022-09-10T22:24:18.454Z,6.53
2022-09-10T22:26:47.896Z,5.80
2022-09-10T22:29:18.149Z,5.88
2022-09-10T22:31:46.641Z,6.07
2022-09-10T22:34:16.440Z,5.53
2022-09-10T22:36:46.043Z,7.80
2022-09-10T22:39:18.184Z,6.75
2022-09-10T22:41:47.271Z,13.27
2022-09-10T22:44:17.717Z,7.45
2022-09-10T22:46:45.943Z,26.60
2022-09-10T22:49:15.982Z,10.32
2022-09-10T22:51:44.673Z,9.93
2022-09-10T22:54:13.077Z,8.68
2022-09-10T22:56:44.709Z,7.30
2022-09-10T22:59:14.490Z,7.28
2022-09-10T23:01:46.529Z,7.40
2022-09-10T23:04:15.383Z,8.38
2022-09-10T23:06:43.458Z,7.40
2022-09-10T23:09:14.590Z,6.60
2022-09-10T23:11:45.078Z,6.30
2022-09-10T23:14:15.627Z,7.05
2022-09-10T23:16:46.207Z,7.57
2022-09-10T23:19:16.309Z,21.45
2022-09-10T23:21:46.627Z,12.45
2022-09-10T23:24:16.344Z,35.83
2022-09-10T23:26:46.519Z,6.50
2022-09-10T23:29:17.428Z,11.32
2022-09-10T23:31:47.667Z,8.35
2022-09-10T23:34:17.820Z,11.15
2022-09-10T23:36:47.434Z,32.55
2022-09-10T23:39:17.780Z,23.58
2022-09-10T23:41:47.707Z,32.72
2022-09-10T23:44:16.171Z,8.77
2022-09-10T23:46:45.594Z,6.43
2022-09-10T23:49:14.080Z,7.65
2022-09-10T23:51:42.251Z,18.90
2022-09-10T23:54:11.669Z,6.80
2022-09-10T23:56:40.210Z,6.95
2022-09-10T23:59:09.991Z,19.42
